createdAt,value
2023-05-05T00:00:50.796Z,2341.00
2023-05-05T00:01:50.907Z,2210.00
2023-05-05T00:02:50.892Z,2228.00
2023-05-05T00:03:51.044Z,2186.00
2023-05-05T00:04:50.953Z,2053.00
2023-05-05T00:05:51.010Z,1977.00
2023-05-05T00:06:50.978Z,1946.00
2023-05-05T00:07:51.023Z,1978.00
2023-05-05T00:08:51.040Z,1960.00
2023-05-05T00:09:51.068Z,1854.00
2023-05-05T00:10:51.142Z,1787.00
2023-05-05T00:11:51.128Z,1803.00
2023-05-05T00:12:51.173Z,1866.00
2023-05-05T00:13:51.216Z,1917.00
2023-05-05T00:14:51.258Z,1958.00
2023-05-05T00:15:51.330Z,1998.00
2023-05-05T00:16:51.413Z,2019.00
2023-05-05T00:17:51.458Z,2075.00
2023-05-05T00:18:51.422Z,2118.00
2023-05-05T00:19:51.505Z,2159.00
2023-05-05T00:20:51.565Z,2173.00
2023-05-05T00:21:51.587Z,2211.00
2023-05-05T00:22:51.652Z,2238.00
2023-05-05T00:23:51.737Z,2265.00
2023-05-05T00:24:51.756Z,2291.00
2023-05-05T00:25:51.846Z,2312.00
2023-05-05T00:26:51.917Z,2326.00
2023-05-05T00:27:51.933Z,2298.00
2023-05-05T00:28:52.040Z,2295.00
2023-05-05T00:29:52.058Z,2335.00
2023-05-05T00:30:52.148Z,2370.00
2023-05-05T00:31:52.174Z,2395.00
2023-05-05T00:32:52.292Z,2405.00
2023-05-05T00:33:52.313Z,2425.00
2023-05-05T00:34:52.383Z,2437.00
2023-05-05T00:35:52.510Z,2437.00
2023-05-05T00:36:52.464Z,2430.00
2023-05-05T00:37:52.552Z,2419.00
2023-05-05T00:38:52.645Z,2359.00
2023-05-05T00:39:52.696Z,2288.00
2023-05-05T00:40:52.740Z,2253.00
2023-05-05T00:41:52.821Z,2228.00
2023-05-05T00:42:52.869Z,2195.00
2023-05-05T00:43:52.920Z,2221.00
2023-05-05T00:44:52.937Z,2273.00
2023-05-05T00:45:52.986Z,2267.00
2023-05-05T00:46:53.052Z,2283.00
2023-05-05T00:47:53.095Z,2282.00
2023-05-05T00:48:53.156Z,2278.00
2023-05-05T00:49:53.149Z,2311.00
2023-05-05T00:50:53.226Z,2318.00
2023-05-05T00:51:53.198Z,2334.00
2023-05-05T00:52:53.274Z,2293.00
2023-05-05T00:53:53.317Z,2307.00
2023-05-05T00:54:53.362Z,2311.00
2023-05-05T00:55:53.410Z,2353.00
2023-05-05T00:56:53.458Z,2334.00
2023-05-05T00:57:53.497Z,2318.00
2023-05-05T00:58:53.538Z,2298.00
2023-05-05T00:59:53.548Z,2327.00
2023-05-05T01:00:53.698Z,2361.00
2023-05-05T01:01:53.651Z,2402.00
2023-05-05T01:02:53.716Z,2457.00
2023-05-05T01:03:53.777Z,2500.00
2023-05-05T01:04:53.741Z,2554.00
2023-05-05T01:05:53.806Z,2584.00
2023-05-05T01:06:53.838Z,2587.00
2023-05-05T01:07:53.879Z,2601.00
2023-05-05T01:08:53.924Z,2589.00
2023-05-05T01:10:07.212Z,2513.00
2023-05-05T01:10:55.296Z,2477.00
2023-05-05T01:11:54.040Z,2370.00
2023-05-05T01:12:54.087Z,2284.00
2023-05-05T01:13:54.045Z,2280.00
2023-05-05T01:14:54.074Z,2252.00
2023-05-05T01:15:54.134Z,2222.00
2023-05-05T01:16:54.138Z,2225.00
2023-05-05T01:17:54.235Z,2190.00
2023-05-05T01:18:54.148Z,2187.00
2023-05-05T01:19:54.215Z,2208.00
2023-05-05T01:20:54.213Z,2244.00
2023-05-05T01:21:54.260Z,2237.00
2023-05-05T01:22:54.253Z,2233.00
2023-05-05T01:23:54.310Z,2209.00
2023-05-05T01:24:54.306Z,2220.00
2023-05-05T01:25:54.344Z,2246.00
2023-05-05T01:26:54.359Z,2263.00
2023-05-05T01:27:54.399Z,2279.00
2023-05-05T01:28:54.416Z,2302.00
2023-05-05T01:29:54.434Z,2312.00
2023-05-05T01:30:54.459Z,2339.00
2023-05-05T01:31:54.568Z,2344.00
2023-05-05T01:32:54.543Z,2373.00
2023-05-05T01:33:54.519Z,2389.00
2023-05-05T01:34:54.529Z,2393.00
2023-05-05T01:35:54.584Z,2425.00
2023-05-05T01:36:54.580Z,2431.00
2023-05-05T01:37:54.629Z,2461.00
2023-05-05T01:38:54.615Z,2465.00
2023-05-05T01:39:54.644Z,2497.00
2023-05-05T01:40:54.681Z,2509.00
2023-05-05T01:41:54.736Z,2524.00
2023-05-05T01:42:54.735Z,2505.00
2023-05-05T01:43:54.768Z,2531.00
2023-05-05T01:44:54.794Z,2555.00
2023-05-05T01:45:54.867Z,2549.00
2023-05-05T01:46:54.877Z,2555.00
2023-05-05T01:47:54.938Z,2573.00
2023-05-05T01:48:54.949Z,2571.00
2023-05-05T01:49:54.973Z,2564.00
2023-05-05T01:50:55.003Z,2564.00
2023-05-05T01:51:55.037Z,2565.00
2023-05-05T01:52:55.060Z,2559.00
2023-05-05T01:53:55.131Z,2566.00
2023-05-05T01:54:55.159Z,2581.00
2023-05-05T01:55:55.199Z,2604.00
2023-05-05T01:56:55.209Z,2603.00
2023-05-05T01:57:55.243Z,2607.00
2023-05-05T01:58:55.258Z,2599.00
2023-05-05T01:59:55.319Z,2587.00
2023-05-05T02:00:55.405Z,2590.00
2023-05-05T02:01:55.409Z,2587.00
2023-05-05T02:02:55.436Z,2628.00
2023-05-05T02:03:55.487Z,2622.00
2023-05-05T02:04:55.511Z,2659.00
2023-05-05T02:05:55.515Z,2709.00
2023-05-05T02:06:55.551Z,2708.00
2023-05-05T02:07:55.582Z,2720.00
2023-05-05T02:08:55.594Z,2702.00
2023-05-05T02:09:55.634Z,2697.00
2023-05-05T02:10:55.664Z,2713.00
2023-05-05T02:11:55.741Z,2688.00
2023-05-05T02:12:55.798Z,2658.00
2023-05-05T02:13:55.865Z,2635.00
2023-05-05T02:14:55.815Z,2634.00
2023-05-05T02:15:55.850Z,2666.00
2023-05-05T02:16:55.877Z,2676.00
2023-05-05T02:17:55.918Z,2695.00
2023-05-05T02:18:55.938Z,2696.00
2023-05-05T02:19:55.947Z,2714.00
2023-05-05T02:20:55.986Z,2708.00
2023-05-05T02:21:56.032Z,2712.00
2023-05-05T02:22:56.068Z,2695.00
2023-05-05T02:23:56.090Z,2706.00
2023-05-05T02:24:56.147Z,2713.00
2023-05-05T02:25:56.197Z,2728.00
2023-05-05T02:26:56.215Z,2714.00
2023-05-05T02:27:56.269Z,2736.00
2023-05-05T02:28:56.288Z,2751.00
2023-05-05T02:29:56.318Z,2753.00
2023-05-05T02:30:56.373Z,2779.00
2023-05-05T02:31:56.386Z,2785.00
2023-05-05T02:32:56.465Z,2804.00
2023-05-05T02:33:56.424Z,2820.00
2023-05-05T02:34:56.464Z,2824.00
2023-05-05T02:35:56.521Z,2821.00
2023-05-05T02:36:56.550Z,2798.00
2023-05-05T02:37:56.586Z,2811.00
2023-05-05T02:38:56.622Z,2788.00
2023-05-05T02:39:56.660Z,2772.00
2023-05-05T02:40:56.671Z,2764.00
2023-05-05T02:41:56.750Z,2762.00
2023-05-05T02:42:56.767Z,2723.00
2023-05-05T02:43:56.738Z,2687.00
2023-05-05T02:44:56.798Z,2652.00
2023-05-05T02:45:56.779Z,2640.00
2023-05-05T02:46:56.843Z,2616.00
2023-05-05T02:47:56.913Z,2590.00
2023-05-05T02:48:56.943Z,2582.00
2023-05-05T02:49:56.937Z,2600.00
2023-05-05T02:50:57.007Z,2593.00
2023-05-05T02:51:57.058Z,2625.00
2023-05-05T02:52:57.089Z,2663.00
2023-05-05T02:53:57.191Z,2675.00
2023-05-05T02:54:57.181Z,2704.00
2023-05-05T02:55:57.228Z,2714.00
2023-05-05T02:56:57.259Z,2720.00
2023-05-05T02:57:57.294Z,2727.00
2023-05-05T02:58:57.338Z,2743.00
2023-05-05T02:59:57.407Z,2742.00
2023-05-05T03:00:57.464Z,2722.00
2023-05-05T03:01:57.643Z,2710.00
2023-05-05T03:02:57.671Z,2696.00
2023-05-05T03:03:57.722Z,2690.00
2023-05-05T03:04:57.639Z,2695.00
2023-05-05T03:05:57.688Z,2689.00
2023-05-05T03:06:57.733Z,2690.00
2023-05-05T03:07:57.774Z,2685.00
2023-05-05T03:08:57.831Z,2669.00
2023-05-05T03:09:57.848Z,2673.00
2023-05-05T03:10:57.909Z,2657.00
2023-05-05T03:11:57.908Z,2689.00
2023-05-05T03:12:58.001Z,2708.00
2023-05-05T03:13:58.018Z,2750.00
2023-05-05T03:14:58.025Z,2753.00
2023-05-05T03:15:58.131Z,2756.00
2023-05-05T03:16:58.153Z,2773.00
2023-05-05T03:17:58.165Z,2793.00
2023-05-05T03:18:58.197Z,2805.00
2023-05-05T03:19:58.251Z,2816.00
2023-05-05T03:20:58.343Z,2833.00
2023-05-05T03:21:58.384Z,2849.00
2023-05-05T03:22:58.442Z,2855.00
2023-05-05T03:23:58.543Z,2882.00
2023-05-05T03:24:58.635Z,2856.00
2023-05-05T03:25:58.760Z,2875.00
2023-05-05T03:26:58.798Z,2869.00
2023-05-05T03:27:58.917Z,2856.00
2023-05-05T03:28:58.991Z,2817.00
2023-05-05T03:29:59.051Z,2779.00
2023-05-05T03:30:59.200Z,2782.00
2023-05-05T03:31:59.313Z,2779.00
2023-05-05T03:32:59.321Z,2775.00
2023-05-05T03:33:59.426Z,2773.00
2023-05-05T03:34:59.504Z,2779.00
2023-05-05T03:35:59.531Z,2798.00
2023-05-05T03:36:59.622Z,2801.00
2023-05-05T03:37:59.666Z,2819.00
2023-05-05T03:38:59.739Z,2825.00
2023-05-05T03:39:59.784Z,2836.00
2023-05-05T03:40:59.867Z,2852.00
2023-05-05T03:41:59.965Z,2854.00
2023-05-05T03:42:59.998Z,2850.00
2023-05-05T03:44:00.085Z,2805.00
2023-05-05T03:45:00.202Z,2765.00
2023-05-05T03:46:00.383Z,2772.00
2023-05-05T03:47:00.344Z,2788.00
2023-05-05T03:48:00.414Z,2787.00
2023-05-05T03:49:00.459Z,2802.00
2023-05-05T03:50:00.596Z,2797.00
2023-05-05T03:51:00.652Z,2806.00
2023-05-05T03:52:00.690Z,2796.00
2023-05-05T03:53:00.759Z,2788.00
2023-05-05T03:54:00.775Z,2753.00
2023-05-05T03:55:00.838Z,2692.00
2023-05-05T03:56:00.903Z,2680.00
2023-05-05T03:57:00.947Z,2639.00
2023-05-05T03:58:00.978Z,2637.00
2023-05-05T03:59:01.028Z,2680.00
2023-05-05T04:00:01.072Z,2713.00
2023-05-05T04:01:01.109Z,2740.00
2023-05-05T04:02:01.189Z,2760.00
2023-05-05T04:03:01.282Z,2770.00
2023-05-05T04:04:01.287Z,2793.00
2023-05-05T04:05:01.329Z,2802.00
2023-05-05T04:06:01.420Z,2738.00
2023-05-05T04:07:01.483Z,2720.00
2023-05-05T04:08:01.536Z,2698.00
2023-05-05T04:09:01.605Z,2696.00
2023-05-05T04:10:01.689Z,2708.00
2023-05-05T04:11:01.728Z,2709.00
2023-05-05T04:12:01.771Z,2685.00
2023-05-05T04:13:01.870Z,2650.00
2023-05-05T04:14:01.881Z,2608.00
2023-05-05T04:15:01.966Z,2593.00
2023-05-05T04:16:02.076Z,2593.00
2023-05-05T04:17:02.091Z,2610.00
2023-05-05T04:18:02.112Z,2635.00
2023-05-05T04:19:02.177Z,2639.00
2023-05-05T04:20:02.210Z,2672.00
2023-05-05T04:21:02.316Z,2706.00
2023-05-05T04:22:02.357Z,2701.00
2023-05-05T04:23:02.382Z,2734.00
2023-05-05T04:24:02.466Z,2734.00
2023-05-05T04:25:02.574Z,2757.00
2023-05-05T04:26:02.732Z,2773.00
2023-05-05T04:27:02.711Z,2796.00
2023-05-05T04:28:02.756Z,2805.00
2023-05-05T04:29:02.850Z,2803.00
2023-05-05T04:30:02.968Z,2798.00
2023-05-05T04:31:03.129Z,2830.00
2023-05-05T04:32:03.143Z,2839.00
2023-05-05T04:33:03.254Z,2851.00
2023-05-05T04:34:03.195Z,2859.00
2023-05-05T04:35:03.319Z,2864.00
2023-05-05T04:36:03.400Z,2871.00
2023-05-05T04:37:03.482Z,2867.00
2023-05-05T04:38:03.574Z,2868.00
2023-05-05T04:39:03.656Z,2874.00
2023-05-05T04:40:03.678Z,2871.00
2023-05-05T04:41:03.781Z,2876.00
2023-05-05T04:42:03.882Z,2872.00
2023-05-05T04:43:03.952Z,2870.00
2023-05-05T04:44:04.001Z,2877.00
2023-05-05T04:45:04.083Z,2889.00
2023-05-05T04:46:04.186Z,2892.00
2023-05-05T04:47:04.272Z,2887.00
2023-05-05T04:48:04.317Z,2912.00
2023-05-05T04:49:04.375Z,2905.00
2023-05-05T04:50:04.451Z,2910.00
2023-05-05T04:51:04.514Z,2926.00
2023-05-05T04:52:04.587Z,2937.00
2023-05-05T04:53:04.673Z,2941.00
2023-05-05T04:54:04.764Z,2931.00
2023-05-05T04:55:04.857Z,2945.00
2023-05-05T04:56:04.911Z,2933.00
2023-05-05T04:57:05.007Z,2953.00
2023-05-05T04:58:05.084Z,2957.00
2023-05-05T04:59:05.132Z,2957.00
2023-05-05T05:00:05.360Z,2948.00
2023-05-05T05:02:24.273Z,500.00
2023-05-05T05:03:24.331Z,500.00
2023-05-05T05:04:24.191Z,500.00
2023-05-05T05:05:24.174Z,500.00
2023-05-05T05:06:24.172Z,500.00
2023-05-05T05:07:24.162Z,509.00
2023-05-05T05:08:24.163Z,510.00
2023-05-05T05:09:24.122Z,509.00
2023-05-05T05:10:24.126Z,505.00
2023-05-05T05:11:24.110Z,505.00
2023-05-05T05:12:24.127Z,500.00
2023-05-05T05:13:24.073Z,503.00
2023-05-05T05:14:24.077Z,519.00
2023-05-05T05:15:24.048Z,523.00
2023-05-05T05:16:24.084Z,517.00
2023-05-05T05:17:24.076Z,504.00
2023-05-05T05:18:23.978Z,510.00
2023-05-05T05:19:23.978Z,507.00
2023-05-05T05:20:23.957Z,510.00
2023-05-05T05:21:23.979Z,513.00
2023-05-05T05:22:23.951Z,516.00
2023-05-05T05:23:23.965Z,518.00
2023-05-05T05:24:24.015Z,515.00
2023-05-05T05:25:23.944Z,515.00
2023-05-05T05:26:23.906Z,524.00
2023-05-05T05:27:23.912Z,526.00
2023-05-05T05:28:23.895Z,524.00
2023-05-05T05:29:23.975Z,531.00
2023-05-05T05:30:23.853Z,534.00
2023-05-05T05:31:23.933Z,542.00
2023-05-05T05:32:23.954Z,546.00
2023-05-05T05:33:23.845Z,535.00
2023-05-05T05:34:23.842Z,540.00
2023-05-05T05:35:23.779Z,561.00
2023-05-05T05:36:23.848Z,606.00
2023-05-05T05:37:23.800Z,689.00
2023-05-05T05:38:23.862Z,876.00
2023-05-05T05:39:23.736Z,922.00
2023-05-05T05:40:23.714Z,952.00
2023-05-05T05:41:23.690Z,926.00
2023-05-05T05:42:23.941Z,887.00
2023-05-05T05:43:23.634Z,864.00
2023-05-05T05:44:23.676Z,873.00
2023-05-05T05:45:30.626Z,826.00
2023-05-05T05:46:23.689Z,827.00
2023-05-05T05:47:24.020Z,780.00
2023-05-05T05:48:23.764Z,771.00
2023-05-05T05:49:23.630Z,791.00
2023-05-05T05:50:23.588Z,800.00
2023-05-05T05:51:23.601Z,758.00
2023-05-05T05:52:23.565Z,730.00
2023-05-05T05:53:23.546Z,736.00
2023-05-05T05:54:23.537Z,711.00
2023-05-05T05:55:23.553Z,748.00
2023-05-05T05:56:23.500Z,759.00
2023-05-05T05:57:23.498Z,752.00
2023-05-05T05:58:23.458Z,728.00
2023-05-05T05:59:23.434Z,740.00
2023-05-05T06:00:23.450Z,734.00
2023-05-05T06:01:23.428Z,682.00
2023-05-05T06:02:23.459Z,653.00
2023-05-05T06:03:23.676Z,648.00
2023-05-05T06:04:23.408Z,655.00
2023-05-05T06:05:23.362Z,657.00
2023-05-05T06:06:23.376Z,656.00
2023-05-05T06:07:23.337Z,735.00
2023-05-05T06:08:25.073Z,742.00
2023-05-05T06:09:23.295Z,733.00
2023-05-05T06:10:27.864Z,732.00
2023-05-05T06:11:24.235Z,733.00
2023-05-05T06:12:23.556Z,742.00
2023-05-05T06:13:23.164Z,655.00
2023-05-05T06:14:23.178Z,665.00
2023-05-05T06:15:23.127Z,626.00
2023-05-05T06:16:23.182Z,617.00
2023-05-05T06:17:23.132Z,623.00
2023-05-05T06:18:23.143Z,623.00
2023-05-05T06:19:23.087Z,592.00
2023-05-05T06:20:23.042Z,571.00
2023-05-05T06:21:23.026Z,590.00
2023-05-05T06:22:22.999Z,586.00
2023-05-05T06:23:23.035Z,561.00
2023-05-05T06:24:22.959Z,544.00
2023-05-05T06:25:22.935Z,542.00
2023-05-05T06:26:22.945Z,550.00
2023-05-05T06:27:22.898Z,564.00
2023-05-05T06:28:22.965Z,572.00
2023-05-05T06:29:22.880Z,558.00
2023-05-05T06:30:22.843Z,546.00
2023-05-05T06:31:22.916Z,552.00
2023-05-05T06:32:22.842Z,577.00
2023-05-05T06:33:22.842Z,596.00
2023-05-05T06:34:22.801Z,620.00
2023-05-05T06:35:22.776Z,628.00
2023-05-05T06:36:22.858Z,617.00
2023-05-05T06:37:22.753Z,594.00
2023-05-05T06:38:22.719Z,534.00
2023-05-05T06:39:22.741Z,531.00
2023-05-05T06:40:22.685Z,498.00
2023-05-05T06:41:22.688Z,509.00
2023-05-05T06:42:22.655Z,498.00
2023-05-05T06:43:22.694Z,509.00
2023-05-05T06:44:22.691Z,531.00
2023-05-05T06:45:22.694Z,513.00
2023-05-05T06:46:23.529Z,511.00
2023-05-05T06:47:22.725Z,500.00
2023-05-05T06:48:23.065Z,500.00
2023-05-05T06:49:22.712Z,500.00
2023-05-05T06:50:22.755Z,493.00
2023-05-05T06:51:22.721Z,502.00
2023-05-05T06:52:22.680Z,500.00
2023-05-05T06:53:23.002Z,499.00
2023-05-05T06:54:22.739Z,522.00
2023-05-05T06:55:22.755Z,533.00
2023-05-05T06:56:22.748Z,500.00
2023-05-05T06:57:22.734Z,502.00
2023-05-05T06:58:22.962Z,500.00
2023-05-05T06:59:22.741Z,496.00
2023-05-05T07:00:22.736Z,496.00
2023-05-05T07:01:22.792Z,501.00
2023-05-05T07:02:24.094Z,536.00
2023-05-05T07:03:22.795Z,500.00
2023-05-05T07:04:22.755Z,502.00
2023-05-05T07:05:22.715Z,507.00
2023-05-05T07:06:22.666Z,487.00
2023-05-05T07:07:22.744Z,500.00
2023-05-05T07:08:22.994Z,503.00
2023-05-05T07:09:22.642Z,500.00
2023-05-05T07:10:22.598Z,500.00
2023-05-05T07:11:22.584Z,507.00
2023-05-05T07:12:22.580Z,511.00
2023-05-05T07:13:22.568Z,501.00
2023-05-05T07:14:24.388Z,500.00
2023-05-05T07:15:28.739Z,498.00
2023-05-05T07:16:23.587Z,498.00
2023-05-05T07:17:22.517Z,502.00
2023-05-05T07:18:22.554Z,505.00
2023-05-05T07:19:22.439Z,500.00
2023-05-05T07:20:22.547Z,477.00
2023-05-05T07:21:22.447Z,498.00
2023-05-05T07:22:22.367Z,502.00
2023-05-05T07:23:23.377Z,472.00
2023-05-05T07:24:22.414Z,430.00
2023-05-05T07:25:22.367Z,417.00
2023-05-05T07:26:22.385Z,421.00
2023-05-05T07:27:22.278Z,417.00
2023-05-05T07:28:22.534Z,462.00
2023-05-05T07:29:22.248Z,540.00
2023-05-05T07:30:22.371Z,922.00
2023-05-05T07:31:22.225Z,1276.00
2023-05-05T07:32:22.271Z,1538.00
2023-05-05T07:33:22.203Z,1744.00
2023-05-05T07:34:22.201Z,1809.00
2023-05-05T07:35:22.249Z,1798.00
2023-05-05T07:36:22.211Z,1914.00
2023-05-05T07:37:22.143Z,1935.00
2023-05-05T07:38:22.150Z,1639.00
2023-05-05T07:39:23.006Z,1758.00
2023-05-05T07:40:22.112Z,1862.00
2023-05-05T07:41:22.095Z,1953.00
2023-05-05T07:42:22.068Z,1987.00
2023-05-05T07:43:22.078Z,1973.00
2023-05-05T07:44:22.093Z,1909.00
2023-05-05T07:45:22.114Z,1866.00
2023-05-05T07:46:22.177Z,1778.00
2023-05-05T07:47:22.168Z,1756.00
2023-05-05T07:48:22.213Z,1736.00
2023-05-05T07:49:22.204Z,1723.00
2023-05-05T07:50:22.211Z,1677.00
2023-05-05T07:51:22.237Z,1624.00
2023-05-05T07:52:30.280Z,1555.00
2023-05-05T07:53:23.213Z,1512.00
2023-05-05T07:54:22.183Z,1455.00
2023-05-05T07:55:22.171Z,1379.00
2023-05-05T07:56:22.168Z,1313.00
2023-05-05T07:57:22.088Z,1236.00
2023-05-05T07:58:22.135Z,1187.00
2023-05-05T07:59:22.087Z,1034.00
2023-05-05T08:00:22.119Z,1007.00
2023-05-05T08:01:22.044Z,1165.00
2023-05-05T08:02:22.125Z,1184.00
2023-05-05T08:03:22.135Z,982.00
2023-05-05T08:04:22.034Z,775.00
2023-05-05T08:05:21.966Z,684.00
2023-05-05T08:06:21.944Z,612.00
2023-05-05T08:07:21.942Z,543.00
2023-05-05T08:08:22.012Z,500.00
2023-05-05T08:09:21.895Z,498.00
2023-05-05T08:10:21.878Z,500.00
2023-05-05T08:11:21.843Z,505.00
2023-05-05T08:12:22.530Z,538.00
2023-05-05T08:13:21.829Z,596.00
2023-05-05T08:14:21.770Z,618.00
2023-05-05T08:15:21.794Z,574.00
2023-05-05T08:16:21.805Z,553.00
2023-05-05T08:17:21.774Z,490.00
2023-05-05T08:18:21.810Z,506.00
2023-05-05T08:19:28.972Z,531.00
2023-05-05T08:20:22.772Z,525.00
2023-05-05T08:21:21.758Z,506.00
2023-05-05T08:22:21.791Z,417.00
2023-05-05T08:23:21.760Z,400.00
2023-05-05T08:24:21.799Z,400.00
2023-05-05T08:25:21.753Z,463.00
2023-05-05T08:26:21.715Z,509.00
2023-05-05T08:27:21.657Z,442.00
2023-05-05T08:28:21.669Z,416.00
2023-05-05T08:29:21.638Z,439.00
2023-05-05T08:30:21.702Z,460.00
2023-05-05T08:31:21.606Z,505.00
2023-05-05T08:32:21.593Z,509.00
2023-05-05T08:33:22.062Z,570.00
2023-05-05T08:34:21.614Z,585.00
2023-05-05T08:35:21.568Z,579.00
2023-05-05T08:36:21.558Z,531.00
2023-05-05T08:37:21.589Z,487.00
2023-05-05T08:38:21.537Z,516.00
2023-05-05T08:39:21.521Z,562.00
2023-05-05T08:40:21.571Z,565.00
2023-05-05T08:41:21.516Z,550.00
2023-05-05T08:42:35.537Z,543.00
2023-05-05T08:43:22.529Z,542.00
2023-05-05T08:44:21.531Z,530.00
2023-05-05T08:45:21.496Z,529.00
2023-05-05T08:46:21.503Z,526.00
2023-05-05T08:47:21.441Z,537.00
2023-05-05T08:48:21.544Z,548.00
2023-05-05T08:49:21.441Z,568.00
2023-05-05T08:50:21.484Z,557.00
2023-05-05T08:51:21.438Z,546.00
2023-05-05T08:52:21.424Z,586.00
2023-05-05T08:53:21.512Z,975.00
2023-05-05T08:54:21.400Z,1213.00
2023-05-05T08:55:21.346Z,1374.00
2023-05-05T08:56:21.384Z,1683.00
2023-05-05T08:57:21.291Z,1902.00
2023-05-05T08:58:21.306Z,2003.00
2023-05-05T08:59:21.306Z,2033.00
2023-05-05T09:00:21.228Z,1632.00
2023-05-05T09:01:21.260Z,1713.00
2023-05-05T09:02:21.346Z,2020.00
2023-05-05T09:03:21.236Z,1848.00
2023-05-05T09:04:21.160Z,1820.00
2023-05-05T09:05:21.110Z,1850.00
2023-05-05T09:06:21.088Z,2039.00
2023-05-05T09:07:21.090Z,2235.00
2023-05-05T09:08:21.050Z,2124.00
2023-05-05T09:09:21.043Z,2000.00
2023-05-05T09:10:21.124Z,2004.00
2023-05-05T09:11:21.151Z,2109.00
2023-05-05T09:12:21.205Z,2038.00
2023-05-05T09:13:21.195Z,2092.00
2023-05-05T09:14:21.211Z,2002.00
2023-05-05T09:15:21.435Z,1868.00
2023-05-05T09:16:21.406Z,1622.00
2023-05-05T09:17:21.251Z,1733.00
2023-05-05T09:18:21.324Z,1769.00
2023-05-05T09:19:21.398Z,1596.00
2023-05-05T09:20:21.394Z,1753.00
2023-05-05T09:21:21.350Z,1883.00
2023-05-05T09:22:21.487Z,2007.00
2023-05-05T09:23:21.458Z,2194.00
2023-05-05T09:24:21.518Z,2142.00
2023-05-05T09:25:21.493Z,2154.00
2023-05-05T09:26:21.575Z,2232.00
2023-05-05T09:27:21.575Z,2370.00
2023-05-05T09:28:21.615Z,2347.00
2023-05-05T09:29:22.062Z,2454.00
2023-05-05T09:30:21.711Z,2281.00
2023-05-05T09:31:21.729Z,2147.00
2023-05-05T09:32:21.728Z,1997.00
2023-05-05T09:33:21.818Z,1783.00
2023-05-05T09:34:22.141Z,1730.00
2023-05-05T09:35:21.866Z,1633.00
2023-05-05T09:36:21.850Z,1606.00
2023-05-05T09:37:21.875Z,1660.00
2023-05-05T09:38:21.888Z,1592.00
2023-05-05T09:39:21.921Z,1572.00
2023-05-05T09:40:22.109Z,1624.00
2023-05-05T09:41:22.017Z,1736.00
2023-05-05T09:42:22.016Z,1854.00
2023-05-05T09:43:22.137Z,1970.00
2023-05-05T09:44:22.656Z,1867.00
2023-05-05T09:45:22.142Z,2082.00
2023-05-05T09:46:22.189Z,2186.00
2023-05-05T09:47:29.373Z,2476.00
2023-05-05T09:48:23.153Z,2486.00
2023-05-05T09:49:22.578Z,2542.00
2023-05-05T09:50:22.070Z,2667.00
2023-05-05T09:51:22.043Z,2862.00
2023-05-05T09:52:22.013Z,3157.00
2023-05-05T09:53:22.584Z,3183.00
2023-05-05T09:54:22.125Z,3200.00
2023-05-05T09:55:21.924Z,3276.00
2023-05-05T09:56:21.892Z,3215.00
2023-05-05T09:57:21.873Z,3212.00
2023-05-05T09:58:21.848Z,3304.00
2023-05-05T09:59:21.842Z,3336.00
2023-05-05T10:00:21.912Z,3433.00
2023-05-05T10:01:21.868Z,3465.00
2023-05-05T10:02:21.815Z,3291.00
2023-05-05T10:03:21.795Z,3395.00
2023-05-05T10:04:21.857Z,3454.00
2023-05-05T10:05:21.810Z,3488.00
2023-05-05T10:06:21.778Z,3491.00
2023-05-05T10:07:21.840Z,3490.00
2023-05-05T10:08:21.846Z,3491.00
2023-05-05T10:09:21.858Z,3537.00
2023-05-05T10:10:21.842Z,3538.00
2023-05-05T10:11:21.825Z,3572.00
2023-05-05T10:12:21.850Z,3602.00
2023-05-05T10:13:21.857Z,3586.00
2023-05-05T10:14:21.896Z,3509.00
2023-05-05T10:15:21.860Z,3493.00
2023-05-05T10:16:22.074Z,3496.00
2023-05-05T10:17:21.879Z,3520.00
2023-05-05T10:18:21.954Z,3508.00
2023-05-05T10:19:21.923Z,3440.00
2023-05-05T10:20:21.941Z,3360.00
2023-05-05T10:21:21.999Z,3384.00
2023-05-05T10:22:21.941Z,3315.00
2023-05-05T10:23:21.986Z,3281.00
2023-05-05T10:24:21.998Z,3293.00
2023-05-05T10:25:22.010Z,3185.00
2023-05-05T10:26:22.004Z,3118.00
2023-05-05T10:27:22.060Z,3061.00
2023-05-05T10:28:22.212Z,3027.00
2023-05-05T10:29:22.143Z,3040.00
2023-05-05T10:30:22.055Z,3062.00
2023-05-05T10:31:26.321Z,3110.00
2023-05-05T10:32:50.880Z,3111.00
2023-05-05T10:34:22.082Z,3112.00
2023-05-05T10:35:21.981Z,3114.00
2023-05-05T10:36:21.986Z,3113.00
2023-05-05T10:37:21.957Z,3052.00
2023-05-05T10:38:23.096Z,3081.00
2023-05-05T10:39:21.886Z,3110.00
2023-05-05T10:40:21.842Z,3101.00
2023-05-05T10:41:21.824Z,3012.00
2023-05-05T10:42:21.821Z,2970.00
2023-05-05T10:43:21.797Z,2936.00
2023-05-05T10:44:21.800Z,2913.00
2023-05-05T10:45:21.742Z,2989.00
2023-05-05T10:46:21.763Z,3008.00
2023-05-05T10:47:21.854Z,3028.00
2023-05-05T10:48:21.729Z,3000.00
2023-05-05T10:49:21.596Z,2962.00
2023-05-05T10:50:21.588Z,2955.00
2023-05-05T10:51:35.283Z,2880.00
2023-05-05T10:52:22.512Z,2876.00
2023-05-05T10:53:21.487Z,2841.00
2023-05-05T10:54:21.443Z,2865.00
2023-05-05T10:55:21.427Z,2869.00
2023-05-05T10:56:21.386Z,2869.00
2023-05-05T10:57:21.335Z,2900.00
2023-05-05T10:58:21.309Z,2907.00
2023-05-05T10:59:21.299Z,2934.00
2023-05-05T11:00:22.073Z,2922.00
2023-05-05T11:01:21.238Z,2920.00
2023-05-05T11:02:21.190Z,2961.00
2023-05-05T11:03:21.257Z,2932.00
2023-05-05T11:04:21.293Z,2913.00
2023-05-05T11:05:21.249Z,2907.00
2023-05-05T11:06:21.240Z,2935.00
2023-05-05T11:07:21.239Z,2925.00
2023-05-05T11:08:21.250Z,2842.00
2023-05-05T11:09:21.305Z,2830.00
2023-05-05T11:10:21.357Z,2864.00
2023-05-05T11:11:21.316Z,2871.00
2023-05-05T11:12:21.379Z,2877.00
2023-05-05T11:13:21.512Z,2878.00
2023-05-05T11:14:21.373Z,2864.00
2023-05-05T11:15:21.405Z,2818.00
2023-05-05T11:16:21.437Z,2771.00
2023-05-05T11:17:21.389Z,2782.00
2023-05-05T11:18:21.400Z,2799.00
2023-05-05T11:19:21.433Z,2791.00
2023-05-05T11:20:21.587Z,2817.00
2023-05-05T11:21:21.521Z,2811.00
2023-05-05T11:22:21.477Z,2887.00
2023-05-05T11:23:21.497Z,2873.00
2023-05-05T11:24:21.479Z,2869.00
2023-05-05T11:25:21.521Z,2716.00
2023-05-05T11:26:21.524Z,2665.00
2023-05-05T11:27:21.582Z,2657.00
2023-05-05T11:28:21.533Z,2673.00
2023-05-05T11:29:21.693Z,2674.00
2023-05-05T11:30:21.569Z,2663.00
2023-05-05T11:31:21.671Z,2669.00
2023-05-05T11:32:21.625Z,2685.00
2023-05-05T11:33:21.621Z,2701.00
2023-05-05T11:34:21.641Z,2703.00
2023-05-05T11:35:22.106Z,2528.00
2023-05-05T11:36:21.726Z,2525.00
2023-05-05T11:37:21.657Z,2490.00
2023-05-05T11:38:21.704Z,2560.00
2023-05-05T11:39:21.699Z,2586.00
2023-05-05T11:40:21.773Z,2541.00
2023-05-05T11:41:21.717Z,2572.00
2023-05-05T11:42:21.720Z,2542.00
2023-05-05T11:43:21.705Z,2532.00
2023-05-05T11:44:21.737Z,2438.00
2023-05-05T11:45:21.794Z,2369.00
2023-05-05T11:46:21.799Z,2366.00
2023-05-05T11:47:21.816Z,2313.00
2023-05-05T11:48:21.776Z,2296.00
2023-05-05T11:49:21.784Z,2359.00
2023-05-05T11:50:22.155Z,2406.00
2023-05-05T11:51:21.833Z,2375.00
2023-05-05T11:52:21.900Z,2361.00
2023-05-05T11:53:21.867Z,2288.00
2023-05-05T11:54:21.878Z,2225.00
2023-05-05T11:55:21.876Z,2190.00
2023-05-05T11:56:21.831Z,2046.00
2023-05-05T11:57:21.919Z,1855.00
2023-05-05T11:58:21.901Z,1960.00
2023-05-05T11:59:21.889Z,2048.00
2023-05-05T12:00:21.919Z,2027.00
2023-05-05T12:01:21.922Z,2130.00
2023-05-05T12:02:21.987Z,2213.00
2023-05-05T12:03:22.018Z,2137.00
2023-05-05T12:04:22.092Z,2049.00
2023-05-05T12:05:22.000Z,2078.00
2023-05-05T12:06:21.980Z,1939.00
2023-05-05T12:07:21.967Z,1709.00
2023-05-05T12:08:22.086Z,1485.00
2023-05-05T12:09:22.023Z,1400.00
2023-05-05T12:10:22.027Z,1447.00
2023-05-05T12:11:22.020Z,1527.00
2023-05-05T12:12:22.018Z,1652.00
2023-05-05T12:13:22.063Z,1670.00
2023-05-05T12:14:21.975Z,1641.00